sensor_id;sensor_type;location;lat;lon;timestamp;P1;durP1;ratioP1;P2;durP2;ratioP2
64615;SDS011;51027;42.162;24.754;2023-11-22T00:01:50;27.17;;;13.45;;
64615;SDS011;51027;42.162;24.754;2023-11-22T00:04:15;31.60;;;13.70;;
64615;SDS011;51027;42.162;24.754;2023-11-22T00:06:44;30.05;;;13.40;;
64615;SDS011;51027;42.162;24.754;2023-11-22T00:09:09;27.55;;;12.98;;
64615;SDS011;51027;42.162;24.754;2023-11-22T00:11:35;26.27;;;12.57;;
64615;SDS011;51027;42.162;24.754;2023-11-22T00:14:01;26.25;;;12.82;;
64615;SDS011;51027;42.162;24.754;2023-11-22T00:16:28;29.45;;;13.77;;
64615;SDS011;51027;42.162;24.754;2023-11-22T00:18:55;28.73;;;13.57;;
64615;SDS011;51027;42.162;24.754;2023-11-22T00:21:25;27.70;;;13.73;;
64615;SDS011;51027;42.162;24.754;2023-11-22T00:23:50;29.67;;;13.30;;
64615;SDS011;51027;42.162;24.754;2023-11-22T00:26:16;28.42;;;14.18;;
64615;SDS011;51027;42.162;24.754;2023-11-22T00:28:42;26.48;;;13.02;;
64615;SDS011;51027;42.162;24.754;2023-11-22T00:31:09;30.00;;;13.55;;
64615;SDS011;51027;42.162;24.754;2023-11-22T00:33:35;24.63;;;12.77;;
64615;SDS011;51027;42.162;24.754;2023-11-22T00:36:01;30.88;;;13.68;;
64615;SDS011;51027;42.162;24.754;2023-11-22T00:38:29;26.10;;;13.75;;
64615;SDS011;51027;42.162;24.754;2023-11-22T00:40:55;28.20;;;12.68;;
64615;SDS011;51027;42.162;24.754;2023-11-22T00:43:26;25.35;;;13.13;;
64615;SDS011;51027;42.162;24.754;2023-11-22T00:45:52;27.15;;;12.73;;
64615;SDS011;51027;42.162;24.754;2023-11-22T00:48:22;26.17;;;12.45;;
64615;SDS011;51027;42.162;24.754;2023-11-22T00:50:48;25.30;;;12.55;;
64615;SDS011;51027;42.162;24.754;2023-11-22T00:53:13;27.60;;;13.27;;
64615;SDS011;51027;42.162;24.754;2023-11-22T00:55:40;28.08;;;12.70;;
64615;SDS011;51027;42.162;24.754;2023-11-22T00:58:05;28.15;;;13.43;;
64615;SDS011;51027;42.162;24.754;2023-11-22T01:00:32;25.33;;;13.02;;
64615;SDS011;51027;42.162;24.754;2023-11-22T01:02:58;24.95;;;12.98;;
64615;SDS011;51027;42.162;24.754;2023-11-22T01:05:23;28.70;;;14.48;;
64615;SDS011;51027;42.162;24.754;2023-11-22T01:07:50;26.85;;;14.05;;
64615;SDS011;51027;42.162;24.754;2023-11-22T01:10:15;25.40;;;13.00;;
64615;SDS011;51027;42.162;24.754;2023-11-22T01:12:41;28.13;;;13.45;;
64615;SDS011;51027;42.162;24.754;2023-11-22T01:15:07;25.83;;;13.57;;
64615;SDS011;51027;42.162;24.754;2023-11-22T01:17:33;24.30;;;12.82;;
64615;SDS011;51027;42.162;24.754;2023-11-22T01:19:59;25.50;;;12.55;;
64615;SDS011;51027;42.162;24.754;2023-11-22T01:22:25;25.92;;;13.18;;
64615;SDS011;51027;42.162;24.754;2023-11-22T01:24:50;26.05;;;12.65;;
64615;SDS011;51027;42.162;24.754;2023-11-22T01:27:16;26.40;;;12.65;;
64615;SDS011;51027;42.162;24.754;2023-11-22T01:29:41;25.77;;;13.65;;
64615;SDS011;51027;42.162;24.754;2023-11-22T01:32:07;26.73;;;12.73;;
64615;SDS011;51027;42.162;24.754;2023-11-22T01:34:34;23.65;;;11.57;;
64615;SDS011;51027;42.162;24.754;2023-11-22T01:36:59;27.35;;;12.35;;
64615;SDS011;51027;42.162;24.754;2023-11-22T01:39:25;26.20;;;13.55;;
64615;SDS011;51027;42.162;24.754;2023-11-22T01:41:51;26.67;;;13.00;;
64615;SDS011;51027;42.162;24.754;2023-11-22T01:44:17;29.27;;;13.82;;
64615;SDS011;51027;42.162;24.754;2023-11-22T01:46:43;29.90;;;13.85;;
64615;SDS011;51027;42.162;24.754;2023-11-22T01:49:09;25.95;;;12.57;;
64615;SDS011;51027;42.162;24.754;2023-11-22T01:51:39;27.85;;;12.77;;
64615;SDS011;51027;42.162;24.754;2023-11-22T01:56:32;26.52;;;12.95;;
64615;SDS011;51027;42.162;24.754;2023-11-22T01:59:00;27.63;;;13.05;;
64615;SDS011;51027;42.162;24.754;2023-11-22T02:01:26;27.83;;;13.82;;
64615;SDS011;51027;42.162;24.754;2023-11-22T02:03:52;25.05;;;12.55;;
64615;SDS011;51027;42.162;24.754;2023-11-22T02:06:18;27.20;;;13.38;;
64615;SDS011;51027;42.162;24.754;2023-11-22T02:08:44;28.48;;;13.75;;
64615;SDS011;51027;42.162;24.754;2023-11-22T02:11:10;28.42;;;13.85;;
64615;SDS011;51027;42.162;24.754;2023-11-22T02:13:36;26.80;;;12.90;;
64615;SDS011;51027;42.162;24.754;2023-11-22T02:16:02;30.13;;;14.07;;
64615;SDS011;51027;42.162;24.754;2023-11-22T02:18:28;26.85;;;13.07;;
64615;SDS011;51027;42.162;24.754;2023-11-22T02:20:54;25.75;;;12.55;;
64615;SDS011;51027;42.162;24.754;2023-11-22T02:23:21;25.42;;;12.70;;
64615;SDS011;51027;42.162;24.754;2023-11-22T02:25:46;26.85;;;13.02;;
64615;SDS011;51027;42.162;24.754;2023-11-22T02:28:12;28.35;;;12.55;;
64615;SDS011;51027;42.162;24.754;2023-11-22T02:30:37;27.65;;;12.55;;
64615;SDS011;51027;42.162;24.754;2023-11-22T02:33:03;28.05;;;13.00;;
64615;SDS011;51027;42.162;24.754;2023-11-22T02:35:32;24.57;;;11.93;;
64615;SDS011;51027;42.162;24.754;2023-11-22T02:37:58;27.13;;;13.00;;
64615;SDS011;51027;42.162;24.754;2023-11-22T02:40:24;26.50;;;12.80;;
64615;SDS011;51027;42.162;24.754;2023-11-22T02:42:50;28.23;;;11.93;;
64615;SDS011;51027;42.162;24.754;2023-11-22T02:45:32;27.67;;;13.48;;
64615;SDS011;51027;42.162;24.754;2023-11-22T02:47:58;26.40;;;13.13;;
64615;SDS011;51027;42.162;24.754;2023-11-22T02:50:24;26.45;;;12.85;;
64615;SDS011;51027;42.162;24.754;2023-11-22T02:52:50;23.15;;;12.70;;
64615;SDS011;51027;42.162;24.754;2023-11-22T02:55:15;25.52;;;13.50;;
64615;SDS011;51027;42.162;24.754;2023-11-22T02:57:41;25.15;;;12.30;;
64615;SDS011;51027;42.162;24.754;2023-11-22T03:00:07;25.48;;;13.35;;
64615;SDS011;51027;42.162;24.754;2023-11-22T03:02:34;26.40;;;13.20;;
64615;SDS011;51027;42.162;24.754;2023-11-22T03:05:00;26.08;;;12.98;;
64615;SDS011;51027;42.162;24.754;2023-11-22T03:07:25;26.50;;;13.82;;
64615;SDS011;51027;42.162;24.754;2023-11-22T03:09:51;30.63;;;13.60;;
64615;SDS011;51027;42.162;24.754;2023-11-22T03:12:18;27.67;;;13.50;;
64615;SDS011;51027;42.162;24.754;2023-11-22T03:14:45;23.20;;;13.05;;
64615;SDS011;51027;42.162;24.754;2023-11-22T03:17:11;32.90;;;13.52;;
64615;SDS011;51027;42.162;24.754;2023-11-22T03:19:37;28.20;;;13.30;;
64615;SDS011;51027;42.162;24.754;2023-11-22T03:22:02;24.05;;;11.95;;
64615;SDS011;51027;42.162;24.754;2023-11-22T03:24:28;26.02;;;12.23;;
64615;SDS011;51027;42.162;24.754;2023-11-22T03:26:55;26.80;;;13.05;;
64615;SDS011;51027;42.162;24.754;2023-11-22T03:29:23;25.67;;;12.55;;
64615;SDS011;51027;42.162;24.754;2023-11-22T03:31:49;28.05;;;13.85;;
64615;SDS011;51027;42.162;24.754;2023-11-22T03:34:15;28.23;;;13.30;;
64615;SDS011;51027;42.162;24.754;2023-11-22T03:36:41;25.42;;;12.75;;
64615;SDS011;51027;42.162;24.754;2023-11-22T03:39:06;26.38;;;13.25;;
64615;SDS011;51027;42.162;24.754;2023-11-22T03:41:32;24.33;;;12.32;;
64615;SDS011;51027;42.162;24.754;2023-11-22T03:43:57;28.00;;;13.57;;
64615;SDS011;51027;42.162;24.754;2023-11-22T03:46:22;28.23;;;12.77;;
64615;SDS011;51027;42.162;24.754;2023-11-22T03:48:48;25.23;;;12.82;;
64615;SDS011;51027;42.162;24.754;2023-11-22T03:51:13;26.98;;;13.32;;
64615;SDS011;51027;42.162;24.754;2023-11-22T03:53:39;24.35;;;12.90;;
64615;SDS011;51027;42.162;24.754;2023-11-22T03:56:04;29.92;;;14.00;;
64615;SDS011;51027;42.162;24.754;2023-11-22T03:58:30;26.92;;;12.93;;
64615;SDS011;51027;42.162;24.754;2023-11-22T04:00:55;24.42;;;12.82;;
64615;SDS011;51027;42.162;24.754;2023-11-22T04:03:21;26.38;;;13.45;;
64615;SDS011;51027;42.162;24.754;2023-11-22T04:05:47;33.05;;;14.10;;
64615;SDS011;51027;42.162;24.754;2023-11-22T04:08:13;25.95;;;14.30;;
64615;SDS011;51027;42.162;24.754;2023-11-22T04:10:40;28.27;;;13.50;;
64615;SDS011;51027;42.162;24.754;2023-11-22T04:13:05;27.50;;;13.32;;
64615;SDS011;51027;42.162;24.754;2023-11-22T04:15:31;26.02;;;14.27;;
64615;SDS011;51027;42.162;24.754;2023-11-22T04:17:57;27.08;;;13.27;;
64615;SDS011;51027;42.162;24.754;2023-11-22T04:20:22;25.27;;;13.32;;
64615;SDS011;51027;42.162;24.754;2023-11-22T04:22:47;30.10;;;14.23;;
64615;SDS011;51027;42.162;24.754;2023-11-22T04:25:13;25.90;;;13.18;;
64615;SDS011;51027;42.162;24.754;2023-11-22T04:27:39;27.20;;;14.52;;
64615;SDS011;51027;42.162;24.754;2023-11-22T04:30:06;27.23;;;13.80;;
64615;SDS011;51027;42.162;24.754;2023-11-22T04:32:39;27.52;;;14.40;;
64615;SDS011;51027;42.162;24.754;2023-11-22T04:35:06;27.35;;;14.38;;
64615;SDS011;51027;42.162;24.754;2023-11-22T04:37:31;30.70;;;14.05;;
64615;SDS011;51027;42.162;24.754;2023-11-22T04:40:00;28.88;;;14.27;;
64615;SDS011;51027;42.162;24.754;2023-11-22T04:42:28;29.38;;;15.15;;
64615;SDS011;51027;42.162;24.754;2023-11-22T04:44:54;29.03;;;14.77;;
64615;SDS011;51027;42.162;24.754;2023-11-22T04:47:19;28.88;;;13.95;;
64615;SDS011;51027;42.162;24.754;2023-11-22T04:49:46;27.65;;;13.75;;
64615;SDS011;51027;42.162;24.754;2023-11-22T04:52:12;24.80;;;12.93;;
64615;SDS011;51027;42.162;24.754;2023-11-22T04:54:38;25.45;;;13.65;;
64615;SDS011;51027;42.162;24.754;2023-11-22T04:57:04;26.17;;;13.35;;
64615;SDS011;51027;42.162;24.754;2023-11-22T04:59:30;25.48;;;13.40;;
64615;SDS011;51027;42.162;24.754;2023-11-22T05:01:55;27.55;;;12.43;;
64615;SDS011;51027;42.162;24.754;2023-11-22T05:04:21;27.90;;;14.18;;
64615;SDS011;51027;42.162;24.754;2023-11-22T05:06:46;29.98;;;13.02;;
64615;SDS011;51027;42.162;24.754;2023-11-22T05:09:12;26.98;;;13.13;;
64615;SDS011;51027;42.162;24.754;2023-11-22T05:11:42;28.20;;;13.80;;
64615;SDS011;51027;42.162;24.754;2023-11-22T05:14:09;27.52;;;14.07;;
64615;SDS011;51027;42.162;24.754;2023-11-22T05:16:35;27.90;;;13.32;;
64615;SDS011;51027;42.162;24.754;2023-11-22T05:19:01;24.23;;;12.65;;
64615;SDS011;51027;42.162;24.754;2023-11-22T05:21:27;25.25;;;13.00;;
64615;SDS011;51027;42.162;24.754;2023-11-22T05:23:52;26.42;;;12.77;;
64615;SDS011;51027;42.162;24.754;2023-11-22T05:26:19;32.20;;;14.38;;
64615;SDS011;51027;42.162;24.754;2023-11-22T05:28:45;26.00;;;12.82;;
64615;SDS011;51027;42.162;24.754;2023-11-22T05:31:12;31.13;;;14.60;;
64615;SDS011;51027;42.162;24.754;2023-11-22T05:33:39;29.27;;;14.20;;
64615;SDS011;51027;42.162;24.754;2023-11-22T05:36:05;28.80;;;16.27;;
64615;SDS011;51027;42.162;24.754;2023-11-22T05:38:31;32.33;;;17.77;;
64615;SDS011;51027;42.162;24.754;2023-11-22T05:40:59;32.45;;;16.98;;
64615;SDS011;51027;42.162;24.754;2023-11-22T05:43:25;30.60;;;17.08;;
64615;SDS011;51027;42.162;24.754;2023-11-22T05:45:52;33.33;;;18.60;;
64615;SDS011;51027;42.162;24.754;2023-11-22T05:48:18;29.67;;;15.93;;
64615;SDS011;51027;42.162;24.754;2023-11-22T05:50:44;26.38;;;14.75;;
64615;SDS011;51027;42.162;24.754;2023-11-22T05:53:10;28.20;;;15.25;;
64615;SDS011;51027;42.162;24.754;2023-11-22T05:55:36;30.50;;;14.80;;
64615;SDS011;51027;42.162;24.754;2023-11-22T05:58:02;29.58;;;14.02;;
64615;SDS011;51027;42.162;24.754;2023-11-22T06:00:28;33.20;;;15.88;;
64615;SDS011;51027;42.162;24.754;2023-11-22T06:02:54;31.75;;;16.02;;
64615;SDS011;51027;42.162;24.754;2023-11-22T06:05:20;28.15;;;13.88;;
64615;SDS011;51027;42.162;24.754;2023-11-22T06:07:46;29.42;;;13.85;;
64615;SDS011;51027;42.162;24.754;2023-11-22T06:10:12;25.40;;;12.30;;
64615;SDS011;51027;42.162;24.754;2023-11-22T06:12:40;26.13;;;12.90;;
64615;SDS011;51027;42.162;24.754;2023-11-22T06:15:06;25.05;;;12.90;;
64615;SDS011;51027;42.162;24.754;2023-11-22T06:17:32;26.55;;;13.18;;
64615;SDS011;51027;42.162;24.754;2023-11-22T06:19:58;26.65;;;12.98;;
64615;SDS011;51027;42.162;24.754;2023-11-22T06:22:23;24.92;;;13.00;;
64615;SDS011;51027;42.162;24.754;2023-11-22T06:24:49;27.13;;;14.35;;
64615;SDS011;51027;42.162;24.754;2023-11-22T06:27:14;29.02;;;14.95;;
64615;SDS011;51027;42.162;24.754;2023-11-22T06:29:42;24.73;;;13.30;;
64615;SDS011;51027;42.162;24.754;2023-11-22T06:32:12;28.05;;;13.52;;
64615;SDS011;51027;42.162;24.754;2023-11-22T06:34:37;25.98;;;12.38;;
64615;SDS011;51027;42.162;24.754;2023-11-22T06:37:03;24.85;;;11.40;;
64615;SDS011;51027;42.162;24.754;2023-11-22T06:39:29;22.52;;;11.15;;
64615;SDS011;51027;42.162;24.754;2023-11-22T06:41:54;22.25;;;11.00;;
64615;SDS011;51027;42.162;24.754;2023-11-22T06:44:20;26.45;;;12.15;;
64615;SDS011;51027;42.162;24.754;2023-11-22T06:46:46;27.17;;;12.88;;
64615;SDS011;51027;42.162;24.754;2023-11-22T06:49:11;23.40;;;11.60;;
64615;SDS011;51027;42.162;24.754;2023-11-22T06:51:36;30.40;;;13.30;;
64615;SDS011;51027;42.162;24.754;2023-11-22T06:54:02;23.77;;;11.88;;
64615;SDS011;51027;42.162;24.754;2023-11-22T06:56:28;23.63;;;11.98;;
64615;SDS011;51027;42.162;24.754;2023-11-22T06:58:54;25.50;;;13.00;;
64615;SDS011;51027;42.162;24.754;2023-11-22T07:01:22;26.60;;;12.85;;
64615;SDS011;51027;42.162;24.754;2023-11-22T07:03:50;23.60;;;11.80;;
64615;SDS011;51027;42.162;24.754;2023-11-22T07:06:17;24.63;;;12.27;;
64615;SDS011;51027;42.162;24.754;2023-11-22T07:08:44;26.05;;;12.48;;
64615;SDS011;51027;42.162;24.754;2023-11-22T07:11:09;22.98;;;11.35;;
64615;SDS011;51027;42.162;24.754;2023-11-22T07:13:36;27.38;;;13.35;;
64615;SDS011;51027;42.162;24.754;2023-11-22T07:16:03;25.73;;;13.43;;
64615;SDS011;51027;42.162;24.754;2023-11-22T07:18:30;26.73;;;13.27;;
64615;SDS011;51027;42.162;24.754;2023-11-22T07:20:57;27.85;;;16.33;;
64615;SDS011;51027;42.162;24.754;2023-11-22T07:23:22;26.73;;;12.77;;
64615;SDS011;51027;42.162;24.754;2023-11-22T07:25:52;25.25;;;13.48;;
64615;SDS011;51027;42.162;24.754;2023-11-22T07:28:17;26.98;;;12.20;;
64615;SDS011;51027;42.162;24.754;2023-11-22T07:30:44;26.42;;;12.82;;
64615;SDS011;51027;42.162;24.754;2023-11-22T07:33:09;26.95;;;13.57;;
64615;SDS011;51027;42.162;24.754;2023-11-22T07:35:36;25.08;;;12.40;;
64615;SDS011;51027;42.162;24.754;2023-11-22T07:38:01;28.05;;;13.13;;
64615;SDS011;51027;42.162;24.754;2023-11-22T07:40:28;25.25;;;11.27;;
64615;SDS011;51027;42.162;24.754;2023-11-22T07:42:54;23.20;;;12.05;;
64615;SDS011;51027;42.162;24.754;2023-11-22T07:45:19;24.33;;;11.90;;
64615;SDS011;51027;42.162;24.754;2023-11-22T07:47:45;26.48;;;13.48;;
64615;SDS011;51027;42.162;24.754;2023-11-22T07:50:12;25.35;;;13.25;;
64615;SDS011;51027;42.162;24.754;2023-11-22T07:52:37;27.10;;;14.68;;
64615;SDS011;51027;42.162;24.754;2023-11-22T07:55:05;30.35;;;14.35;;
64615;SDS011;51027;42.162;24.754;2023-11-22T08:00:00;24.55;;;12.73;;
64615;SDS011;51027;42.162;24.754;2023-11-22T08:02:29;28.75;;;14.27;;
64615;SDS011;51027;42.162;24.754;2023-11-22T08:04:56;27.27;;;13.45;;
64615;SDS011;51027;42.162;24.754;2023-11-22T08:07:21;27.65;;;14.68;;
64615;SDS011;51027;42.162;24.754;2023-11-22T08:09:47;25.83;;;14.15;;
64615;SDS011;51027;42.162;24.754;2023-11-22T08:12:13;27.80;;;14.63;;
64615;SDS011;51027;42.162;24.754;2023-11-22T08:14:38;28.55;;;14.50;;
64615;SDS011;51027;42.162;24.754;2023-11-22T08:17:05;26.63;;;14.25;;
64615;SDS011;51027;42.162;24.754;2023-11-22T08:19:31;28.38;;;13.35;;
64615;SDS011;51027;42.162;24.754;2023-11-22T08:21:57;30.02;;;13.95;;
64615;SDS011;51027;42.162;24.754;2023-11-22T08:24:22;27.00;;;13.05;;
64615;SDS011;51027;42.162;24.754;2023-11-22T08:26:51;27.30;;;13.30;;
64615;SDS011;51027;42.162;24.754;2023-11-22T08:29:17;25.30;;;13.75;;
64615;SDS011;51027;42.162;24.754;2023-11-22T08:31:43;27.13;;;13.93;;
64615;SDS011;51027;42.162;24.754;2023-11-22T08:34:09;31.73;;;15.23;;
64615;SDS011;51027;42.162;24.754;2023-11-22T08:36:36;31.10;;;14.55;;
64615;SDS011;51027;42.162;24.754;2023-11-22T08:39:02;29.15;;;14.75;;
64615;SDS011;51027;42.162;24.754;2023-11-22T08:41:30;32.13;;;14.93;;
64615;SDS011;51027;42.162;24.754;2023-11-22T08:43:57;28.05;;;13.75;;
64615;SDS011;51027;42.162;24.754;2023-11-22T08:46:22;29.40;;;14.48;;
64615;SDS011;51027;42.162;24.754;2023-11-22T08:48:48;29.15;;;15.43;;
64615;SDS011;51027;42.162;24.754;2023-11-22T08:51:16;30.08;;;15.27;;
64615;SDS011;51027;42.162;24.754;2023-11-22T08:53:42;36.15;;;18.05;;
64615;SDS011;51027;42.162;24.754;2023-11-22T08:56:09;33.75;;;16.27;;
64615;SDS011;51027;42.162;24.754;2023-11-22T08:58:36;39.50;;;18.65;;
64615;SDS011;51027;42.162;24.754;2023-11-22T09:01:03;34.58;;;18.40;;
64615;SDS011;51027;42.162;24.754;2023-11-22T09:03:30;30.75;;;17.83;;
64615;SDS011;51027;42.162;24.754;2023-11-22T09:05:56;30.02;;;14.55;;
64615;SDS011;51027;42.162;24.754;2023-11-22T09:08:21;30.17;;;16.35;;
64615;SDS011;51027;42.162;24.754;2023-11-22T09:10:47;28.48;;;15.45;;
64615;SDS011;51027;42.162;24.754;2023-11-22T09:13:13;29.45;;;15.40;;
64615;SDS011;51027;42.162;24.754;2023-11-22T09:15:41;31.33;;;16.00;;
64615;SDS011;51027;42.162;24.754;2023-11-22T09:18:09;31.20;;;17.40;;
64615;SDS011;51027;42.162;24.754;2023-11-22T09:20:35;35.75;;;17.05;;
64615;SDS011;51027;42.162;24.754;2023-11-22T09:23:01;32.25;;;17.38;;
64615;SDS011;51027;42.162;24.754;2023-11-22T09:25:27;30.63;;;16.83;;
64615;SDS011;51027;42.162;24.754;2023-11-22T09:27:54;37.78;;;20.90;;
64615;SDS011;51027;42.162;24.754;2023-11-22T09:30:21;42.85;;;21.52;;
64615;SDS011;51027;42.162;24.754;2023-11-22T09:35:27;32.78;;;18.02;;
64615;SDS011;51027;42.162;24.754;2023-11-22T09:37:54;31.70;;;16.20;;
64615;SDS011;51027;42.162;24.754;2023-11-22T09:40:21;31.65;;;16.42;;
64615;SDS011;51027;42.162;24.754;2023-11-22T09:42:47;28.77;;;14.80;;
64615;SDS011;51027;42.162;24.754;2023-11-22T09:45:19;30.98;;;15.90;;
64615;SDS011;51027;42.162;24.754;2023-11-22T09:47:45;31.40;;;14.37;;
64615;SDS011;51027;42.162;24.754;2023-11-22T09:50:49;25.25;;;13.40;;
64615;SDS011;51027;42.162;24.754;2023-11-22T09:53:34;24.55;;;12.77;;
64615;SDS011;51027;42.162;24.754;2023-11-22T09:56:05;28.58;;;12.80;;
64615;SDS011;51027;42.162;24.754;2023-11-22T09:58:34;29.15;;;13.30;;
64615;SDS011;51027;42.162;24.754;2023-11-22T10:01:02;27.58;;;13.65;;
64615;SDS011;51027;42.162;24.754;2023-11-22T10:03:28;26.90;;;13.98;;
64615;SDS011;51027;42.162;24.754;2023-11-22T10:05:58;31.38;;;15.10;;
64615;SDS011;51027;42.162;24.754;2023-11-22T10:08:24;30.00;;;14.80;;
64615;SDS011;51027;42.162;24.754;2023-11-22T10:10:52;29.58;;;15.82;;
64615;SDS011;51027;42.162;24.754;2023-11-22T10:13:19;36.10;;;19.58;;
64615;SDS011;51027;42.162;24.754;2023-11-22T10:15:45;39.00;;;23.00;;
64615;SDS011;51027;42.162;24.754;2023-11-22T10:18:13;36.38;;;19.23;;
64615;SDS011;51027;42.162;24.754;2023-11-22T10:23:09;29.58;;;15.43;;
64615;SDS011;51027;42.162;24.754;2023-11-22T10:25:36;27.58;;;15.07;;
64615;SDS011;51027;42.162;24.754;2023-11-22T10:28:08;27.98;;;15.07;;
64615;SDS011;51027;42.162;24.754;2023-11-22T10:30:34;27.95;;;13.73;;
64615;SDS011;51027;42.162;24.754;2023-11-22T10:33:00;28.20;;;14.85;;
64615;SDS011;51027;42.162;24.754;2023-11-22T10:35:27;28.45;;;14.75;;
64615;SDS011;51027;42.162;24.754;2023-11-22T10:37:53;26.67;;;13.93;;
64615;SDS011;51027;42.162;24.754;2023-11-22T10:40:18;28.80;;;15.15;;
64615;SDS011;51027;42.162;24.754;2023-11-22T10:42:44;28.80;;;15.20;;
64615;SDS011;51027;42.162;24.754;2023-11-22T10:45:17;27.55;;;14.73;;
64615;SDS011;51027;42.162;24.754;2023-11-22T10:47:43;27.90;;;15.02;;
64615;SDS011;51027;42.162;24.754;2023-11-22T10:50:08;30.08;;;15.68;;
64615;SDS011;51027;42.162;24.754;2023-11-22T10:52:35;30.05;;;15.95;;
64615;SDS011;51027;42.162;24.754;2023-11-22T10:55:03;31.02;;;16.20;;
64615;SDS011;51027;42.162;24.754;2023-11-22T10:57:33;36.80;;;18.38;;
64615;SDS011;51027;42.162;24.754;2023-11-22T11:00:05;30.83;;;16.67;;
64615;SDS011;51027;42.162;24.754;2023-11-22T11:02:35;27.45;;;13.82;;
64615;SDS011;51027;42.162;24.754;2023-11-22T11:05:08;26.42;;;13.30;;
64615;SDS011;51027;42.162;24.754;2023-11-22T11:07:42;26.38;;;13.48;;
64615;SDS011;51027;42.162;24.754;2023-11-22T11:10:13;25.58;;;12.65;;
64615;SDS011;51027;42.162;24.754;2023-11-22T11:12:38;26.92;;;12.38;;
64615;SDS011;51027;42.162;24.754;2023-11-22T11:15:04;28.45;;;13.68;;
64615;SDS011;51027;42.162;24.754;2023-11-22T11:17:31;23.58;;;12.13;;
64615;SDS011;51027;42.162;24.754;2023-11-22T11:19:57;24.38;;;11.20;;
64615;SDS011;51027;42.162;24.754;2023-11-22T11:22:23;26.90;;;11.73;;
64615;SDS011;51027;42.162;24.754;2023-11-22T11:24:48;24.58;;;12.20;;
64615;SDS011;51027;42.162;24.754;2023-11-22T11:27:26;23.02;;;11.65;;
64615;SDS011;51027;42.162;24.754;2023-11-22T11:29:51;24.33;;;10.90;;
64615;SDS011;51027;42.162;24.754;2023-11-22T11:32:38;22.77;;;11.13;;
64615;SDS011;51027;42.162;24.754;2023-11-22T11:35:04;23.10;;;11.18;;
64615;SDS011;51027;42.162;24.754;2023-11-22T11:37:33;25.38;;;10.88;;
64615;SDS011;51027;42.162;24.754;2023-11-22T11:39:58;26.30;;;12.48;;
64615;SDS011;51027;42.162;24.754;2023-11-22T11:42:24;24.77;;;12.32;;
64615;SDS011;51027;42.162;24.754;2023-11-22T11:47:24;24.05;;;11.55;;
64615;SDS011;51027;42.162;24.754;2023-11-22T11:49:49;26.77;;;11.63;;
64615;SDS011;51027;42.162;24.754;2023-11-22T11:52:15;26.48;;;11.50;;
64615;SDS011;51027;42.162;24.754;2023-11-22T11:54:41;25.23;;;11.68;;
64615;SDS011;51027;42.162;24.754;2023-11-22T11:57:07;20.67;;;9.85;;
64615;SDS011;51027;42.162;24.754;2023-11-22T11:59:33;22.42;;;10.38;;
64615;SDS011;51027;42.162;24.754;2023-11-22T12:02:00;23.90;;;10.30;;
64615;SDS011;51027;42.162;24.754;2023-11-22T12:04:25;24.65;;;11.02;;
64615;SDS011;51027;42.162;24.754;2023-11-22T12:06:51;23.08;;;10.70;;
64615;SDS011;51027;42.162;24.754;2023-11-22T12:09:26;25.13;;;10.50;;
64615;SDS011;51027;42.162;24.754;2023-11-22T12:11:55;20.63;;;10.13;;
64615;SDS011;51027;42.162;24.754;2023-11-22T12:14:21;22.88;;;10.38;;
64615;SDS011;51027;42.162;24.754;2023-11-22T12:16:50;26.17;;;11.00;;
64615;SDS011;51027;42.162;24.754;2023-11-22T12:19:25;23.10;;;10.70;;
64615;SDS011;51027;42.162;24.754;2023-11-22T12:21:53;23.35;;;11.25;;
64615;SDS011;51027;42.162;24.754;2023-11-22T12:24:18;24.00;;;11.65;;
64615;SDS011;51027;42.162;24.754;2023-11-22T12:26:48;21.60;;;10.95;;
64615;SDS011;51027;42.162;24.754;2023-11-22T12:29:15;22.73;;;10.93;;
64615;SDS011;51027;42.162;24.754;2023-11-22T12:31:44;23.75;;;10.65;;
64615;SDS011;51027;42.162;24.754;2023-11-22T12:34:11;23.67;;;11.13;;
64615;SDS011;51027;42.162;24.754;2023-11-22T12:36:41;26.60;;;12.20;;
64615;SDS011;51027;42.162;24.754;2023-11-22T12:39:08;26.38;;;12.75;;
64615;SDS011;51027;42.162;24.754;2023-11-22T12:41:41;22.55;;;11.15;;
64615;SDS011;51027;42.162;24.754;2023-11-22T12:44:12;23.58;;;11.07;;
64615;SDS011;51027;42.162;24.754;2023-11-22T12:47:11;22.48;;;10.30;;
64615;SDS011;51027;42.162;24.754;2023-11-22T12:49:42;22.95;;;11.07;;
64615;SDS011;51027;42.162;24.754;2023-11-22T12:52:13;23.27;;;12.13;;
64615;SDS011;51027;42.162;24.754;2023-11-22T12:54:39;21.05;;;10.65;;
64615;SDS011;51027;42.162;24.754;2023-11-22T12:57:09;23.10;;;11.50;;
64615;SDS011;51027;42.162;24.754;2023-11-22T12:59:38;23.42;;;11.13;;
64615;SDS011;51027;42.162;24.754;2023-11-22T13:02:05;24.20;;;11.30;;
64615;SDS011;51027;42.162;24.754;2023-11-22T13:04:32;23.17;;;10.80;;
64615;SDS011;51027;42.162;24.754;2023-11-22T13:06:58;25.08;;;10.98;;
64615;SDS011;51027;42.162;24.754;2023-11-22T13:09:25;23.60;;;10.82;;
64615;SDS011;51027;42.162;24.754;2023-11-22T13:11:51;22.75;;;10.38;;
64615;SDS011;51027;42.162;24.754;2023-11-22T13:14:17;22.83;;;10.93;;
64615;SDS011;51027;42.162;24.754;2023-11-22T13:16:44;22.27;;;10.60;;
64615;SDS011;51027;42.162;24.754;2023-11-22T13:19:12;23.48;;;10.38;;
64615;SDS011;51027;42.162;24.754;2023-11-22T13:21:38;21.80;;;10.45;;
64615;SDS011;51027;42.162;24.754;2023-11-22T13:24:05;23.30;;;11.30;;
64615;SDS011;51027;42.162;24.754;2023-11-22T13:26:31;23.92;;;11.00;;
64615;SDS011;51027;42.162;24.754;2023-11-22T13:28:59;24.02;;;11.43;;
64615;SDS011;51027;42.162;24.754;2023-11-22T13:31:24;22.65;;;10.75;;
64615;SDS011;51027;42.162;24.754;2023-11-22T13:33:50;23.55;;;10.70;;
64615;SDS011;51027;42.162;24.754;2023-11-22T13:36:16;23.35;;;10.77;;
64615;SDS011;51027;42.162;24.754;2023-11-22T13:38:42;20.85;;;10.43;;
64615;SDS011;51027;42.162;24.754;2023-11-22T13:41:08;24.33;;;11.25;;
64615;SDS011;51027;42.162;24.754;2023-11-22T13:43:34;25.45;;;11.85;;
64615;SDS011;51027;42.162;24.754;2023-11-22T13:46:00;23.00;;;12.30;;
64615;SDS011;51027;42.162;24.754;2023-11-22T13:48:28;25.67;;;11.77;;
64615;SDS011;51027;42.162;24.754;2023-11-22T13:53:21;25.15;;;11.82;;
64615;SDS011;51027;42.162;24.754;2023-11-22T13:55:50;25.15;;;11.80;;
64615;SDS011;51027;42.162;24.754;2023-11-22T13:58:19;27.33;;;12.30;;
64615;SDS011;51027;42.162;24.754;2023-11-22T14:00:45;25.98;;;12.45;;
64615;SDS011;51027;42.162;24.754;2023-11-22T14:03:13;23.85;;;12.10;;
64615;SDS011;51027;42.162;24.754;2023-11-22T14:05:38;24.13;;;12.77;;
64615;SDS011;51027;42.162;24.754;2023-11-22T14:08:04;27.33;;;12.65;;
64615;SDS011;51027;42.162;24.754;2023-11-22T14:10:31;24.23;;;12.18;;
64615;SDS011;51027;42.162;24.754;2023-11-22T14:12:58;28.50;;;13.35;;
64615;SDS011;51027;42.162;24.754;2023-11-22T14:15:25;26.02;;;13.55;;
64615;SDS011;51027;42.162;24.754;2023-11-22T14:17:53;25.75;;;13.43;;
64615;SDS011;51027;42.162;24.754;2023-11-22T14:20:19;30.42;;;13.77;;
64615;SDS011;51027;42.162;24.754;2023-11-22T14:22:46;26.27;;;13.60;;